createdAt,value
2018-02-08T00:01:08.439Z,83.00
2018-02-08T00:03:34.671Z,94.03
2018-02-08T00:06:00.942Z,84.47
2018-02-08T00:08:27.154Z,100.87
2018-02-08T00:10:53.388Z,92.97
2018-02-08T00:13:19.738Z,103.60
2018-02-08T00:15:46.768Z,100.90
2018-02-08T00:18:13.787Z,92.60
2018-02-08T00:20:40.123Z,84.97
2018-02-08T00:23:06.356Z,98.03
2018-02-08T00:25:32.674Z,98.10
2018-02-08T00:27:58.864Z,91.80
2018-02-08T00:30:25.140Z,96.87
2018-02-08T00:32:51.411Z,87.57
2018-02-08T00:35:17.629Z,88.57
2018-02-08T00:37:44.586Z,94.50
2018-02-08T00:40:10.960Z,98.97
2018-02-08T00:42:37.163Z,90.70
2018-02-08T00:45:03.523Z,106.40
2018-02-08T00:47:30.772Z,89.43
2018-02-08T00:49:57.159Z,87.83
2018-02-08T00:52:23.548Z,81.97
2018-02-08T00:54:50.606Z,99.60
2018-02-08T00:57:17.588Z,90.30
2018-02-08T00:59:43.991Z,83.63
2018-02-08T01:02:11.096Z,86.37
2018-02-08T01:04:38.282Z,95.37
2018-02-08T01:07:05.389Z,90.73
2018-02-08T01:09:31.663Z,91.33
2018-02-08T01:11:58.043Z,88.97
2018-02-08T01:14:24.409Z,85.30
2018-02-08T01:16:51.419Z,84.50
2018-02-08T01:19:17.599Z,82.60
2018-02-08T01:21:43.979Z,89.10
2018-02-08T01:24:10.206Z,88.00
2018-02-08T01:26:36.529Z,83.83
2018-02-08T01:29:02.814Z,80.60
2018-02-08T01:31:29.095Z,82.77
2018-02-08T01:33:55.529Z,77.90
2018-02-08T01:36:21.753Z,78.40
2018-02-08T01:38:48.082Z,86.03
2018-02-08T01:41:14.327Z,81.60
2018-02-08T01:43:40.563Z,79.37
2018-02-08T01:46:07.696Z,72.03
2018-02-08T01:48:35.368Z,83.07
2018-02-08T01:51:02.505Z,83.10
2018-02-08T01:53:29.627Z,75.10
2018-02-08T01:55:56.021Z,82.00
2018-02-08T01:58:22.600Z,70.23
2018-02-08T02:00:49.659Z,78.90
2018-02-08T02:03:16.656Z,70.77
2018-02-08T02:05:43.029Z,71.03
2018-02-08T02:08:09.325Z,77.90
2018-02-08T02:10:35.757Z,64.33
2018-02-08T02:13:02.031Z,72.27
2018-02-08T02:15:29.153Z,67.73
2018-02-08T02:17:55.339Z,70.27
2018-02-08T02:20:21.628Z,78.17
2018-02-08T02:22:48.574Z,85.07
2018-02-08T02:25:14.877Z,77.03
2018-02-08T02:27:41.101Z,75.07
2018-02-08T02:30:07.372Z,74.03
2018-02-08T02:32:33.773Z,84.13
2018-02-08T02:34:59.973Z,73.07
2018-02-08T02:37:26.126Z,73.10
2018-02-08T02:39:52.347Z,64.03
2018-02-08T02:42:18.674Z,77.53
2018-02-08T02:44:45.046Z,69.20
2018-02-08T02:47:12.352Z,65.90
2018-02-08T02:49:38.753Z,73.73
2018-02-08T02:52:05.272Z,68.80
2018-02-08T02:54:31.610Z,76.13
2018-02-08T02:56:58.075Z,65.93
2018-02-08T02:59:24.468Z,71.57
2018-02-08T03:01:50.766Z,75.17
2018-02-08T03:04:17.715Z,69.30
2018-02-08T03:06:44.693Z,74.83
2018-02-08T03:09:11.070Z,76.80
2018-02-08T03:11:38.248Z,82.07
2018-02-08T03:14:05.704Z,78.07
2018-02-08T03:16:32.846Z,83.27
2018-02-08T03:18:59.909Z,85.80
2018-02-08T03:21:26.248Z,66.93
2018-02-08T03:23:52.516Z,67.63
2018-02-08T03:26:18.744Z,75.97
2018-02-08T03:28:44.954Z,67.97
2018-02-08T03:31:11.385Z,82.43
2018-02-08T03:33:37.652Z,77.97
2018-02-08T03:36:04.675Z,72.97
2018-02-08T03:38:31.322Z,76.83
2018-02-08T03:40:59.111Z,85.67
2018-02-08T03:43:25.474Z,78.23
2018-02-08T03:45:51.821Z,72.07
2018-02-08T03:48:18.150Z,78.97
2018-02-08T03:50:44.354Z,80.83
2018-02-08T03:53:10.764Z,78.60
2018-02-08T03:55:37.176Z,80.03
2018-02-08T03:58:04.189Z,77.03
2018-02-08T04:00:30.412Z,81.67
2018-02-08T04:02:56.760Z,75.50
2018-02-08T04:05:23.099Z,86.30
2018-02-08T04:07:50.231Z,78.10
2018-02-08T04:10:16.854Z,72.93
2018-02-08T04:12:43.082Z,76.07
2018-02-08T04:15:09.511Z,76.63
2018-02-08T04:17:35.739Z,81.37
2018-02-08T04:20:02.021Z,83.30
2018-02-08T04:22:28.359Z,86.93
2018-02-08T04:24:54.662Z,80.07
2018-02-08T04:27:21.629Z,73.40
2018-02-08T04:29:47.963Z,79.93
2018-02-08T04:32:14.248Z,80.67
2018-02-08T04:34:41.187Z,70.90
2018-02-08T04:37:14.891Z,84.10
2018-02-08T04:39:53.418Z,82.03
2018-02-08T04:45:32.939Z,79.70
2018-02-08T04:48:06.173Z,81.17
2018-02-08T04:50:33.385Z,85.97
2018-02-08T04:52:59.714Z,74.40
2018-02-08T04:55:26.117Z,79.77
2018-02-08T04:57:52.405Z,77.73
2018-02-08T05:00:19.432Z,77.23
2018-02-08T05:02:45.741Z,79.50
2018-02-08T05:05:12.026Z,76.67
2018-02-08T05:07:38.452Z,89.53
2018-02-08T05:10:05.395Z,67.10
2018-02-08T05:12:31.706Z,63.57
2018-02-08T05:14:58.695Z,80.93
2018-02-08T05:17:24.938Z,70.37
2018-02-08T05:19:51.272Z,90.83
2018-02-08T05:22:17.532Z,84.10
2018-02-08T05:24:44.836Z,73.17
2018-02-08T05:27:11.191Z,78.83
2018-02-08T05:29:37.864Z,86.97
2018-02-08T05:32:04.912Z,79.33
2018-02-08T05:34:32.069Z,69.77
2018-02-08T05:36:58.422Z,89.30
2018-02-08T05:39:24.815Z,76.30
2018-02-08T05:41:51.845Z,83.50
2018-02-08T05:44:18.193Z,80.63
2018-02-08T05:46:45.236Z,82.87
2018-02-08T05:49:12.264Z,87.90
2018-02-08T05:51:39.284Z,95.30
2018-02-08T05:54:05.664Z,97.10
2018-02-08T05:56:32.100Z,86.30
2018-02-08T05:58:58.728Z,92.40
2018-02-08T06:01:25.948Z,94.30
2018-02-08T06:03:53.899Z,97.93
2018-02-08T06:06:20.208Z,104.07
2018-02-08T06:08:46.436Z,241.37
2018-02-08T06:11:12.698Z,217.97
2018-02-08T06:13:40.565Z,163.40
2018-02-08T06:16:07.702Z,156.57
2018-02-08T06:18:35.529Z,151.73
2018-02-08T06:21:02.031Z,175.23
2018-02-08T06:23:29.243Z,89.57
2018-02-08T06:25:55.528Z,93.07
2018-02-08T06:28:21.748Z,104.77
2018-02-08T06:30:48.005Z,89.90
2018-02-08T06:33:14.910Z,101.27
2018-02-08T06:35:41.820Z,100.93
2018-02-08T06:38:08.964Z,106.60
2018-02-08T06:40:35.414Z,101.77
2018-02-08T06:43:02.724Z,115.43
2018-02-08T06:45:28.983Z,121.40
2018-02-08T06:47:55.616Z,110.93
2018-02-08T06:50:21.866Z,97.63
2018-02-08T06:52:48.847Z,113.07
2018-02-08T06:55:15.149Z,88.93
2018-02-08T06:57:41.469Z,94.33
2018-02-08T07:00:08.499Z,96.90
2018-02-08T07:02:35.620Z,93.10
2018-02-08T07:05:01.920Z,99.20
2018-02-08T07:07:28.206Z,98.23
2018-02-08T07:09:54.553Z,94.50
2018-02-08T07:12:20.848Z,105.93
2018-02-08T07:14:47.204Z,102.80
2018-02-08T07:17:14.161Z,93.47
2018-02-08T07:19:40.443Z,98.13
2018-02-08T07:22:06.841Z,97.10
2018-02-08T07:24:33.048Z,105.03
2018-02-08T07:26:59.384Z,96.47
2018-02-08T07:29:25.571Z,82.00
2018-02-08T07:31:52.567Z,101.80
2018-02-08T07:34:18.779Z,96.03
2018-02-08T07:36:45.238Z,96.97
2018-02-08T07:39:11.503Z,94.23
2018-02-08T07:41:38.505Z,101.80
2018-02-08T07:44:04.675Z,110.03
2018-02-08T07:46:31.018Z,110.27
2018-02-08T07:48:58.030Z,104.67
2018-02-08T07:51:24.218Z,121.07
2018-02-08T07:53:50.613Z,108.63
2018-02-08T07:56:17.540Z,91.13
2018-02-08T07:58:43.789Z,86.17
2018-02-08T08:01:10.995Z,98.33
2018-02-08T08:03:37.332Z,89.40
2018-02-08T08:06:03.582Z,100.97
2018-02-08T08:08:30.591Z,94.43
2018-02-08T08:10:57.337Z,98.87
2018-02-08T08:13:23.599Z,108.07
2018-02-08T08:15:51.695Z,112.27
2018-02-08T08:18:18.094Z,99.33
2018-02-08T08:20:45.340Z,102.10
2018-02-08T08:23:12.523Z,108.87
2018-02-08T08:25:38.850Z,98.13
2018-02-08T08:28:05.615Z,105.50
2018-02-08T08:30:31.964Z,94.77
2018-02-08T08:32:58.414Z,97.13
2018-02-08T08:35:24.754Z,98.80
2018-02-08T08:37:51.778Z,95.20
2018-02-08T08:40:18.196Z,104.40
2018-02-08T08:42:44.554Z,94.67
2018-02-08T08:45:10.939Z,99.83
2018-02-08T08:47:37.416Z,91.77
2018-02-08T08:50:04.609Z,93.30
2018-02-08T08:52:31.068Z,94.10
2018-02-08T08:54:57.404Z,90.00
2018-02-08T08:57:23.900Z,126.77
2018-02-08T08:59:57.192Z,105.80
2018-02-08T09:02:23.772Z,92.80
2018-02-08T09:04:50.126Z,111.03
2018-02-08T09:07:17.133Z,104.80
2018-02-08T09:09:43.465Z,88.80
2018-02-08T09:12:09.657Z,88.00
2018-02-08T09:14:36.133Z,103.23
2018-02-08T09:17:02.389Z,86.93
2018-02-08T09:19:29.315Z,83.70
2018-02-08T09:21:56.383Z,96.47
2018-02-08T09:24:23.419Z,86.03
2018-02-08T09:26:50.479Z,89.27
2018-02-08T09:29:16.747Z,94.07
2018-02-08T09:31:42.936Z,87.90
2018-02-08T09:34:09.255Z,79.80
2018-02-08T09:36:35.571Z,88.27
2018-02-08T09:39:02.636Z,97.80
2018-02-08T09:41:28.956Z,96.93
2018-02-08T09:43:56.043Z,91.50
2018-02-08T09:46:22.450Z,99.03
2018-02-08T09:48:49.066Z,87.70
2018-02-08T09:51:16.277Z,83.33
2018-02-08T09:53:42.862Z,92.83
2018-02-08T09:56:10.292Z,88.83
2018-02-08T09:58:37.353Z,75.10
2018-02-08T10:01:05.409Z,81.47
2018-02-08T10:03:32.659Z,84.87
2018-02-08T10:05:59.622Z,88.70
2018-02-08T10:08:26.959Z,88.80
2018-02-08T10:10:53.214Z,87.63
2018-02-08T10:13:19.681Z,72.20
2018-02-08T10:15:45.941Z,74.57
2018-02-08T10:18:13.056Z,69.80
2018-02-08T10:20:39.444Z,77.77
2018-02-08T10:23:05.854Z,69.27
2018-02-08T10:25:32.167Z,77.33
2018-02-08T10:27:58.588Z,79.47
2018-02-08T10:30:25.212Z,76.47
2018-02-08T10:32:51.442Z,66.50
2018-02-08T10:35:17.927Z,70.30
2018-02-08T10:37:44.970Z,65.20
2018-02-08T10:40:11.876Z,70.17
2018-02-08T10:42:38.145Z,72.50
2018-02-08T10:45:04.446Z,69.10
2018-02-08T10:47:30.766Z,75.10
2018-02-08T10:49:57.141Z,80.20
2018-02-08T10:52:23.374Z,67.17
2018-02-08T10:54:49.746Z,90.50
2018-02-08T10:57:16.093Z,81.10
2018-02-08T10:59:43.975Z,75.83
2018-02-08T11:02:12.244Z,67.30
2018-02-08T11:04:39.456Z,77.13
2018-02-08T11:07:06.019Z,80.53
2018-02-08T11:09:33.160Z,70.30
2018-02-08T11:12:00.664Z,79.00
2018-02-08T11:14:27.281Z,76.43
2018-02-08T11:16:54.727Z,73.90
2018-02-08T11:19:21.896Z,76.63
2018-02-08T11:21:48.147Z,77.13
2018-02-08T11:24:14.722Z,79.00
2018-02-08T11:26:42.129Z,80.00
2018-02-08T11:29:08.527Z,77.37
2018-02-08T11:31:34.930Z,70.87
2018-02-08T11:34:01.946Z,82.20
2018-02-08T11:36:28.503Z,81.67
2018-02-08T11:38:54.821Z,74.47
2018-02-08T11:41:21.070Z,73.07
2018-02-08T11:43:48.945Z,71.93
2018-02-08T11:46:17.094Z,69.73
2018-02-08T11:48:44.337Z,79.47
2018-02-08T11:51:10.600Z,79.10
2018-02-08T11:53:37.804Z,80.47
2018-02-08T11:56:03.976Z,78.03
2018-02-08T11:58:31.699Z,77.00
2018-02-08T12:03:52.028Z,78.57
2018-02-08T12:06:19.150Z,69.77
2018-02-08T12:08:45.415Z,75.30
2018-02-08T12:11:12.673Z,73.73
2018-02-08T12:13:38.855Z,73.00
2018-02-08T12:16:05.430Z,70.67
2018-02-08T12:18:32.848Z,72.60
2018-02-08T12:20:59.292Z,71.30
2018-02-08T12:23:25.612Z,67.87
2018-02-08T12:25:52.001Z,69.53
2018-02-08T12:28:18.359Z,72.60
2018-02-08T12:30:44.696Z,73.33
2018-02-08T12:33:11.016Z,72.57
2018-02-08T12:35:37.252Z,71.40
2018-02-08T12:38:03.620Z,65.97
2018-02-08T12:40:30.841Z,68.90
2018-02-08T12:42:57.238Z,66.90
2018-02-08T12:45:23.637Z,62.73
2018-02-08T12:47:50.823Z,68.47
2018-02-08T12:50:17.749Z,67.10
2018-02-08T12:52:44.060Z,67.77
2018-02-08T12:55:10.362Z,59.40
2018-02-08T12:57:36.679Z,76.57
2018-02-08T13:00:03.155Z,63.00
2018-02-08T13:02:29.561Z,115.20
2018-02-08T13:04:56.762Z,114.33
2018-02-08T13:07:23.213Z,108.13
2018-02-08T13:09:49.430Z,70.77
2018-02-08T13:12:15.702Z,83.13
2018-02-08T13:14:43.218Z,68.30
2018-02-08T13:17:09.596Z,68.40
2018-02-08T13:19:37.039Z,71.33
2018-02-08T13:22:04.212Z,73.67
2018-02-08T13:24:30.613Z,70.13
2018-02-08T13:26:57.017Z,69.27
2018-02-08T13:29:23.413Z,73.30
2018-02-08T13:31:50.768Z,77.17
2018-02-08T13:34:16.998Z,74.33
2018-02-08T13:36:43.365Z,79.13
2018-02-08T13:39:11.641Z,80.17
2018-02-08T13:41:38.026Z,89.07
2018-02-08T13:44:04.205Z,94.27
2018-02-08T13:46:30.566Z,90.27
2018-02-08T13:49:00.030Z,99.17
2018-02-08T13:54:45.321Z,90.47
2018-02-08T13:57:17.804Z,76.63
2018-02-08T14:02:52.146Z,92.63
2018-02-08T14:05:18.540Z,118.93
2018-02-08T14:07:44.808Z,89.10
2018-02-08T14:10:11.936Z,102.20
2018-02-08T14:12:38.226Z,84.20
2018-02-08T14:15:04.713Z,85.07
2018-02-08T14:17:32.029Z,83.20
2018-02-08T14:19:58.679Z,123.03
2018-02-08T14:22:25.025Z,106.80
2018-02-08T14:24:51.409Z,88.10
2018-02-08T14:27:17.906Z,87.33
2018-02-08T14:29:44.958Z,78.73
2018-02-08T14:32:11.911Z,89.37
2018-02-08T14:34:38.083Z,83.10
2018-02-08T14:37:04.528Z,100.60
2018-02-08T14:39:30.738Z,86.40
2018-02-08T14:41:57.228Z,97.90
2018-02-08T14:44:23.718Z,89.97
2018-02-08T14:46:50.066Z,98.23
2018-02-08T14:49:17.187Z,92.50
2018-02-08T14:51:43.636Z,106.43
2018-02-08T14:54:09.984Z,97.47
2018-02-08T14:56:37.008Z,101.63
2018-02-08T14:59:03.408Z,99.90
2018-02-08T15:01:29.798Z,100.47
2018-02-08T15:03:56.173Z,104.10
2018-02-08T15:06:22.355Z,107.07
2018-02-08T15:08:49.523Z,107.03
2018-02-08T15:11:15.939Z,88.43
2018-02-08T15:13:42.205Z,93.60
2018-02-08T15:16:08.527Z,91.67
2018-02-08T15:18:35.011Z,98.13
2018-02-08T15:21:02.169Z,94.20
2018-02-08T15:23:29.365Z,94.70
2018-02-08T15:25:56.742Z,97.17
2018-02-08T15:28:23.487Z,93.00
2018-02-08T15:30:50.616Z,113.23
2018-02-08T15:33:16.847Z,105.53
2018-02-08T15:35:43.307Z,100.83
2018-02-08T15:38:10.254Z,110.70
2018-02-08T15:40:37.305Z,105.57
2018-02-08T15:43:04.512Z,117.60
2018-02-08T15:45:30.943Z,101.57
2018-02-08T15:47:57.313Z,123.97
2018-02-08T15:50:24.328Z,106.93
2018-02-08T15:52:50.918Z,108.70
2018-02-08T15:55:17.254Z,100.30
2018-02-08T15:57:43.626Z,111.50
2018-02-08T16:00:10.699Z,101.40
2018-02-08T16:02:37.908Z,107.93
2018-02-08T16:05:04.354Z,117.03
2018-02-08T16:07:30.757Z,110.60
2018-02-08T16:09:57.124Z,126.97
2018-02-08T16:12:25.194Z,253.23
2018-02-08T16:14:52.534Z,125.00
2018-02-08T16:17:18.889Z,101.17
2018-02-08T16:19:45.978Z,99.60
2018-02-08T16:22:12.217Z,101.20
2018-02-08T16:24:38.671Z,107.43
2018-02-08T16:27:05.112Z,98.83
2018-02-08T16:29:32.237Z,105.50
2018-02-08T16:31:58.520Z,108.60
2018-02-08T16:34:24.920Z,108.43
2018-02-08T16:36:52.114Z,102.13
2018-02-08T16:39:33.305Z,99.00
2018-02-08T16:41:59.650Z,112.30
2018-02-08T16:44:26.036Z,123.63
2018-02-08T16:46:52.486Z,107.30
2018-02-08T16:49:18.842Z,112.87
2018-02-08T16:51:45.498Z,104.47
2018-02-08T16:54:11.729Z,113.20
2018-02-08T16:56:38.193Z,97.13
2018-02-08T16:59:04.611Z,110.60
2018-02-08T17:01:30.950Z,109.17
2018-02-08T17:03:57.353Z,110.93
2018-02-08T17:06:24.283Z,106.77
2018-02-08T17:08:50.752Z,100.57
2018-02-08T17:11:17.840Z,123.10
2018-02-08T17:13:44.580Z,111.40
2018-02-08T17:16:11.343Z,107.60
2018-02-08T17:18:38.366Z,111.80
2018-02-08T17:21:04.696Z,119.67
2018-02-08T17:23:30.987Z,141.70
2018-02-08T17:25:57.635Z,121.13
2018-02-08T17:28:23.910Z,122.90
2018-02-08T17:30:50.218Z,121.63
2018-02-08T17:33:16.639Z,141.40
2018-02-08T17:35:42.935Z,118.07
2018-02-08T17:38:09.344Z,116.50
2018-02-08T17:40:36.669Z,152.93
2018-02-08T17:43:03.103Z,121.03
2018-02-08T17:45:29.449Z,132.90
2018-02-08T17:47:57.239Z,137.40
2018-02-08T17:50:23.485Z,119.43
2018-02-08T17:52:49.840Z,121.07
2018-02-08T17:55:16.230Z,112.77
2018-02-08T17:57:42.736Z,122.37
2018-02-08T18:00:10.485Z,115.90
2018-02-08T18:02:37.108Z,136.50
2018-02-08T18:05:03.459Z,125.63
2018-02-08T18:07:30.610Z,121.83
2018-02-08T18:09:56.979Z,125.27
2018-02-08T18:12:23.447Z,115.67
2018-02-08T18:14:49.842Z,107.53
2018-02-08T18:17:16.089Z,123.30
2018-02-08T18:19:42.538Z,127.93
2018-02-08T18:22:08.855Z,124.00
2018-02-08T18:24:35.397Z,125.60
2018-02-08T18:27:01.946Z,126.40
2018-02-08T18:29:28.322Z,132.17
2018-02-08T18:31:54.916Z,126.17
2018-02-08T18:34:22.100Z,128.87
2018-02-08T18:36:48.488Z,130.50
2018-02-08T18:39:15.246Z,141.03
2018-02-08T18:41:41.492Z,142.20
2018-02-08T18:44:08.505Z,128.20
2018-02-08T18:46:35.118Z,123.67
2018-02-08T18:49:01.439Z,126.23
2018-02-08T18:51:27.780Z,133.73
2018-02-08T18:53:54.134Z,138.67
2018-02-08T18:56:20.544Z,134.60
2018-02-08T18:58:47.281Z,132.13
2018-02-08T19:01:13.874Z,116.80
2018-02-08T19:03:40.404Z,124.17
2018-02-08T19:06:06.759Z,134.93
2018-02-08T19:08:33.292Z,137.03
2018-02-08T19:10:59.812Z,132.07
2018-02-08T19:13:26.123Z,120.87
2018-02-08T19:15:52.421Z,142.40
2018-02-08T19:18:18.657Z,131.27
2018-02-08T19:20:46.409Z,135.77
2018-02-08T19:23:12.838Z,126.70
2018-02-08T19:25:39.495Z,118.57
2018-02-08T19:28:06.770Z,137.33
2018-02-08T19:30:33.325Z,129.90
2018-02-08T19:32:59.756Z,135.37
2018-02-08T19:35:27.385Z,125.70
2018-02-08T19:38:01.099Z,119.80
2018-02-08T19:40:27.878Z,119.20
2018-02-08T19:42:54.217Z,120.63
2018-02-08T19:45:20.656Z,121.73
2018-02-08T19:47:47.085Z,119.13
2018-02-08T19:50:14.011Z,118.53
2018-02-08T19:52:40.488Z,110.97
2018-02-08T19:55:07.695Z,111.53
2018-02-08T19:57:33.985Z,102.53
2018-02-08T20:00:00.354Z,108.93
2018-02-08T20:02:26.757Z,115.30
2018-02-08T20:04:53.038Z,117.43
2018-02-08T20:07:20.253Z,113.83
2018-02-08T20:09:46.817Z,117.03
2018-02-08T20:12:13.776Z,120.73
2018-02-08T20:14:42.279Z,119.37
2018-02-08T20:17:08.610Z,100.87
2018-02-08T20:19:34.863Z,109.60
2018-02-08T20:22:01.414Z,124.10
2018-02-08T20:24:27.833Z,111.73
2018-02-08T20:26:54.127Z,98.20
2018-02-08T20:29:20.451Z,118.87
2018-02-08T20:31:46.828Z,105.63
2018-02-08T20:34:13.263Z,121.47
2018-02-08T20:36:39.827Z,107.60
2018-02-08T20:39:07.025Z,108.00
2018-02-08T20:41:33.555Z,116.57
2018-02-08T20:44:00.396Z,106.20
2018-02-08T20:46:26.931Z,119.47
2018-02-08T20:48:53.352Z,123.47
2018-02-08T20:51:20.088Z,135.57
2018-02-08T20:53:47.459Z,103.87
2018-02-08T20:56:13.844Z,117.83
2018-02-08T20:58:40.244Z,106.93
2018-02-08T21:01:06.582Z,108.70
2018-02-08T21:03:33.019Z,106.60
2018-02-08T21:06:00.083Z,108.30
2018-02-08T21:08:26.410Z,105.63
2018-02-08T21:10:53.360Z,120.63
2018-02-08T21:13:20.393Z,118.00
2018-02-08T21:15:47.518Z,132.30
2018-02-08T21:18:13.959Z,113.93
2018-02-08T21:20:40.490Z,111.47
2018-02-08T21:23:07.757Z,98.80
2018-02-08T21:25:35.109Z,107.77
2018-02-08T21:28:01.466Z,124.53
2018-02-08T21:30:28.879Z,138.00
2018-02-08T21:32:55.309Z,106.13
2018-02-08T21:35:21.589Z,112.60
2018-02-08T21:37:47.953Z,126.10
2018-02-08T21:40:14.205Z,145.47
2018-02-08T21:42:41.152Z,143.40
2018-02-08T21:45:08.165Z,146.60
2018-02-08T21:47:34.282Z,136.10
2018-02-08T21:50:00.557Z,127.93
2018-02-08T21:52:27.190Z,118.50
2018-02-08T21:54:54.240Z,112.53
2018-02-08T21:57:21.173Z,105.87
2018-02-08T21:59:47.448Z,105.30
2018-02-08T22:02:13.853Z,105.50
2018-02-08T22:04:40.130Z,110.67
2018-02-08T22:07:06.404Z,108.47
2018-02-08T22:09:33.629Z,109.20
2018-02-08T22:12:00.699Z,111.57
2018-02-08T22:14:27.889Z,101.03
2018-02-08T22:16:54.240Z,93.63
2018-02-08T22:19:20.610Z,94.73
2018-02-08T22:21:47.000Z,96.90
2018-02-08T22:24:13.281Z,98.43
2018-02-08T22:26:39.622Z,98.30
2018-02-08T22:29:06.386Z,98.57
2018-02-08T22:31:32.839Z,94.63
2018-02-08T22:33:59.556Z,92.30
2018-02-08T22:36:25.998Z,102.57
2018-02-08T22:38:53.124Z,98.13
2018-02-08T22:41:19.414Z,92.40
2018-02-08T22:43:45.708Z,90.20
2018-02-08T22:46:12.916Z,98.53
2018-02-08T22:48:39.270Z,97.27
2018-02-08T22:51:05.588Z,91.23
2018-02-08T22:53:32.261Z,97.17
2018-02-08T22:55:59.337Z,93.17
2018-02-08T22:58:25.684Z,105.97
2018-02-08T23:00:51.931Z,99.50
2018-02-08T23:03:18.498Z,101.03
2018-02-08T23:05:46.287Z,98.17
2018-02-08T23:08:13.503Z,98.07
2018-02-08T23:10:40.995Z,113.77
2018-02-08T23:13:07.278Z,120.60
2018-02-08T23:15:33.711Z,120.07
2018-02-08T23:17:59.909Z,136.50
2018-02-08T23:20:26.318Z,114.67
2018-02-08T23:22:52.699Z,119.83
2018-02-08T23:25:19.084Z,119.80
2018-02-08T23:27:45.448Z,136.57
2018-02-08T23:30:11.830Z,136.33
2018-02-08T23:32:38.928Z,143.23
2018-02-08T23:35:05.567Z,133.53
2018-02-08T23:37:31.973Z,105.70
2018-02-08T23:39:58.158Z,106.23
2018-02-08T23:42:25.103Z,103.67
2018-02-08T23:44:52.044Z,107.83
2018-02-08T23:47:19.024Z,87.27
2018-02-08T23:49:45.285Z,92.87
2018-02-08T23:52:12.327Z,90.10
2018-02-08T23:54:38.775Z,101.13
2018-02-08T23:57:05.726Z,101.17
2018-02-08T23:59:32.852Z,111.17
